Time;durP1;ratioP1;P1;durP2;ratioP2;P2;SDS_P1;SDS_P2;PMS_P1;PMS_P2;Temp;Humidity;BMP_temperature;BMP_pressure;BME280_temperature;BME280_humidity;BME280_pressure;Samples;Min_cycle;Max_cycle;Signal;HPM_P1;HPM_P2
2022/10/07 00:00:01;;;;;;;;;;;10.20;99.90;;;;;;5052260;28;20356;-71
2022/10/07 00:02:30;;;;;;;;;;;10.00;99.90;;;;;;5050857;28;19968;-72
2022/10/07 00:04:58;;;;;;;;;;;10.00;99.90;;;;;;5051260;28;20018;-71
2022/10/07 00:07:26;;;;;;;;;;;9.90;99.90;;;;;;5053045;28;20361;-72
2022/10/07 00:09:54;;;;;;;;;;;10.00;99.90;;;;;;5051799;28;19972;-72
2022/10/07 00:12:22;;;;;;;;;;;10.00;99.90;;;;;;5053206;28;20484;-72
2022/10/07 00:14:50;;;;;;;;;;;10.00;99.90;;;;;;5052688;28;20231;-73
2022/10/07 00:17:18;;;;;;;;;;;10.00;99.90;;;;;;5053210;28;19972;-72
2022/10/07 00:19:47;;;;;;;;;;;10.00;99.90;;;;;;5052923;28;19976;-71
2022/10/07 00:22:15;;;;;;;;;;;10.10;99.90;;;;;;5052829;28;19972;-72
2022/10/07 00:24:43;;;;;;;;;;;10.10;99.90;;;;;;5053006;28;19986;-72
2022/10/07 00:27:11;;;;;;;;;;;10.10;99.90;;;;;;5083135;22;19964;-65
2022/10/07 00:29:38;;;;;;;;;;;9.90;99.90;;;;;;5071608;28;19964;-64
2022/10/07 00:32:06;;;;;;;;;;;9.90;99.90;;;;;;5072782;28;20456;-65
2022/10/07 00:34:34;;;;;;;;;;;9.70;99.90;;;;;;5072776;28;20054;-64
2022/10/07 00:37:03;;;;;;;;;;;9.70;99.90;;;;;;5072561;28;20459;-64
2022/10/07 00:39:31;;;;;;;;;;;9.60;99.90;;;;;;5072363;28;20010;-63
2022/10/07 00:41:59;;;;;;;;;;;9.60;99.90;;;;;;5072520;28;19968;-64
2022/10/07 00:44:37;;;;;;;;;;;9.60;99.90;;;;;;5072627;28;19972;-64
2022/10/07 00:47:08;;;;;;;;;;;9.60;99.90;;;;;;5072645;28;20342;-64
2022/10/07 00:49:40;;;;;;;;;;;9.40;99.90;;;;;;5072126;28;20499;-64
2022/10/07 00:52:10;;;;;;;;;;;9.50;99.90;;;;;;5072636;28;20460;-64
2022/10/07 00:54:38;;;;;;;;;;;9.50;99.90;;;;;;5072487;28;19974;-65
2022/10/07 00:57:06;;;;;;;;;;;9.60;99.90;;;;;;5072492;28;19971;-65
2022/10/07 00:59:33;;;;;;;;;;;9.60;99.90;;;;;;5071976;28;19974;-64
2022/10/07 01:02:01;;;;;;;;;;;9.50;99.90;;;;;;5072324;28;19972;-66
2022/10/07 01:04:29;;;;;;;;;;;9.40;99.90;;;;;;5072259;28;19972;-65
2022/10/07 01:06:57;;;;;;;;;;;9.40;99.90;;;;;;5071589;28;19972;-64
2022/10/07 01:09:26;;;;;;;;;;;9.40;99.90;;;;;;5071939;28;19968;-64
2022/10/07 01:11:57;;;;;;;;;;;9.40;99.90;;;;;;5072204;28;19968;-64
2022/10/07 01:14:31;;;;;;;;;;;9.30;99.90;;;;;;5072136;28;19968;-64
2022/10/07 01:17:00;;;;;;;;;;;9.20;99.90;;;;;;5072430;28;19972;-64
2022/10/07 01:19:45;;;;;;;;;;;9.20;99.90;;;;;;5072023;28;19972;-64
2022/10/07 01:22:21;;;;;;;;;;;9.10;99.90;;;;;;5072175;28;19974;-64
2022/10/07 01:24:58;;;;;;;;;;;9.10;99.90;;;;;;5072089;28;19968;-64
2022/10/07 01:27:27;;;;;;;;;;;9.00;99.90;;;;;;5071659;28;19968;-65
2022/10/07 01:29:57;;;;;;;;;;;9.00;99.90;;;;;;5071901;28;19976;-64
2022/10/07 01:32:30;;;;;;;;;;;9.00;99.90;;;;;;5072220;28;19998;-65
2022/10/07 01:34:59;;;;;;;;;;;8.90;99.90;;;;;;5071777;28;20428;-64
2022/10/07 01:37:29;;;;;;;;;;;8.80;99.90;;;;;;5071815;28;20459;-63
2022/10/07 01:40:02;;;;;;;;;;;8.80;99.90;;;;;;5072013;28;19976;-64
2022/10/07 01:42:31;;;;;;;;;;;8.80;99.90;;;;;;5071960;28;19975;-64
2022/10/07 01:44:59;;;;;;;;;;;8.80;99.90;;;;;;5071910;28;19971;-64
2022/10/07 01:47:27;;;;;;;;;;;8.70;99.90;;;;;;5071840;28;20070;-64
2022/10/07 01:49:55;;;;;;;;;;;8.80;99.90;;;;;;5071387;28;20077;-64
2022/10/07 01:52:34;;;;;;;;;;;8.70;99.90;;;;;;5071831;28;19971;-64
2022/10/07 01:55:12;;;;;;;;;;;8.70;99.90;;;;;;5071677;28;19968;-64
2022/10/07 01:57:46;;;;;;;;;;;8.70;99.90;;;;;;5071739;28;20351;-64
2022/10/07 02:00:16;;;;;;;;;;;8.70;99.90;;;;;;5071504;28;20345;-65
2022/10/07 02:03:01;;;;;;;;;;;8.60;99.90;;;;;;5071752;28;19982;-64
2022/10/07 02:05:34;;;;;;;;;;;8.60;99.90;;;;;;5061401;28;20454;-64
2022/10/07 02:08:10;;;;;;;;;;;8.80;99.90;;;;;;5071546;28;19968;-64
2022/10/07 02:10:45;;;;;;;;;;;8.80;99.90;;;;;;5071346;28;19972;-64
2022/10/07 02:13:16;;;;;;;;;;;8.70;99.90;;;;;;5071540;28;19968;-65
2022/10/07 02:15:45;;;;;;;;;;;8.70;99.90;;;;;;5071337;28;19971;-64
2022/10/07 02:18:15;;;;;;;;;;;8.80;99.90;;;;;;5073012;28;20066;-64
2022/10/07 02:20:44;;;;;;;;;;;8.70;99.90;;;;;;5075066;28;19975;-65
2022/10/07 02:23:13;;;;;;;;;;;8.70;99.90;;;;;;5075214;28;20625;-65
2022/10/07 02:25:44;;;;;;;;;;;8.70;99.90;;;;;;5075120;28;19974;-64
2022/10/07 02:28:13;;;;;;;;;;;8.60;99.90;;;;;;5074981;28;19968;-66
2022/10/07 02:30:42;;;;;;;;;;;8.60;99.90;;;;;;5075064;28;19972;-65
2022/10/07 02:33:11;;;;;;;;;;;8.70;99.90;;;;;;5075094;28;19968;-66
2022/10/07 02:35:41;;;;;;;;;;;8.60;99.90;;;;;;5074795;28;19986;-64
2022/10/07 02:38:11;;;;;;;;;;;8.60;99.90;;;;;;5075111;28;20001;-65
2022/10/07 02:40:41;;;;;;;;;;;8.80;99.90;;;;;;5074781;28;19968;-65
2022/10/07 02:43:13;;;;;;;;;;;8.80;99.90;;;;;;5074825;28;20007;-66
2022/10/07 02:45:44;;;;;;;;;;;8.90;99.90;;;;;;5074545;28;19967;-65
2022/10/07 02:48:17;;;;;;;;;;;9.00;99.90;;;;;;5075048;28;20352;-66
2022/10/07 02:50:47;;;;;;;;;;;9.00;99.90;;;;;;5074638;28;19967;-65
2022/10/07 02:53:16;;;;;;;;;;;9.10;99.90;;;;;;5074928;28;19972;-66
2022/10/07 02:55:44;;;;;;;;;;;9.20;99.90;;;;;;5074449;28;19968;-65
2022/10/07 02:58:12;;;;;;;;;;;9.20;99.90;;;;;;5074434;28;19974;-66
2022/10/07 03:00:42;;;;;;;;;;;9.30;99.90;;;;;;5074419;28;19977;-65
2022/10/07 03:03:11;;;;;;;;;;;9.40;99.90;;;;;;5074729;28;19972;-65
2022/10/07 03:05:39;;;;;;;;;;;9.30;99.90;;;;;;5074264;28;20455;-65
2022/10/07 03:08:08;;;;;;;;;;;9.30;99.90;;;;;;5074485;28;20002;-66
2022/10/07 03:10:36;;;;;;;;;;;9.10;99.90;;;;;;5074175;28;20432;-65
2022/10/07 03:13:04;;;;;;;;;;;9.10;99.90;;;;;;5074470;28;19982;-66
2022/10/07 03:15:34;;;;;;;;;;;9.10;99.90;;;;;;5073982;28;19997;-66
2022/10/07 03:18:24;;;;;;;;;;;8.90;99.90;;;;;;5074164;28;19972;-66
2022/10/07 03:20:54;;;;;;;;;;;8.80;99.90;;;;;;5073838;28;20009;-66
2022/10/07 03:23:22;;;;;;;;;;;8.90;99.90;;;;;;5074339;28;20070;-65
2022/10/07 03:25:51;;;;;;;;;;;9.00;99.90;;;;;;5074107;28;19970;-65
2022/10/07 03:28:19;;;;;;;;;;;9.20;99.90;;;;;;5073885;28;19968;-65
2022/10/07 03:30:47;;;;;;;;;;;9.10;99.90;;;;;;5073163;28;20018;-66
2022/10/07 03:33:15;;;;;;;;;;;9.10;99.90;;;;;;5074022;28;19968;-65
2022/10/07 03:35:43;;;;;;;;;;;9.20;99.90;;;;;;5073801;28;19978;-65
2022/10/07 03:38:12;;;;;;;;;;;9.40;99.90;;;;;;5073692;28;19974;-66
2022/10/07 03:40:40;;;;;;;;;;;9.50;99.90;;;;;;5073603;28;19971;-66
2022/10/07 03:43:08;;;;;;;;;;;9.60;99.90;;;;;;5073773;28;19972;-66
2022/10/07 03:45:42;;;;;;;;;;;9.70;99.90;;;;;;5073593;28;19978;-67
2022/10/07 03:48:10;;;;;;;;;;;9.70;99.90;;;;;;5073816;28;19972;-67
2022/10/07 03:50:38;;;;;;;;;;;9.80;99.90;;;;;;5073198;28;19968;-66
2022/10/07 03:53:06;;;;;;;;;;;9.80;99.90;;;;;;5073780;28;19978;-65
2022/10/07 03:55:36;;;;;;;;;;;9.80;99.90;;;;;;5073370;28;20455;-66
2022/10/07 03:58:04;;;;;;;;;;;9.80;99.90;;;;;;5073397;28;19971;-67
2022/10/07 04:00:31;;;;;;;;;;;9.70;99.90;;;;;;5073233;28;19971;-67
2022/10/07 04:02:59;;;;;;;;;;;9.70;99.90;;;;;;5073346;28;20054;-66
2022/10/07 04:05:27;;;;;;;;;;;9.60;99.90;;;;;;5073070;28;20067;-65
2022/10/07 04:07:55;;;;;;;;;;;9.60;99.90;;;;;;5068393;28;19972;-65
2022/10/07 04:10:23;;;;;;;;;;;9.70;99.90;;;;;;5071058;28;19982;-65
2022/10/07 04:12:52;;;;;;;;;;;9.50;99.90;;;;;;5064469;28;20467;-65
2022/10/07 04:15:20;;;;;;;;;;;9.60;99.90;;;;;;5058178;28;19964;-66
2022/10/07 04:17:48;;;;;;;;;;;9.60;99.90;;;;;;5062123;28;20787;-66
2022/10/07 04:20:17;;;;;;;;;;;9.60;99.90;;;;;;5061455;28;19976;-68
2022/10/07 04:22:44;;;;;;;;;;;9.70;99.90;;;;;;5063663;28;19982;-66
2022/10/07 04:28:00;;;;;;;;;;;9.70;99.90;;;;;;5062340;28;19982;-66
2022/10/07 04:30:32;;;;;;;;;;;9.80;99.90;;;;;;5062529;28;20033;-66
2022/10/07 04:33:06;;;;;;;;;;;9.80;99.90;;;;;;5063235;28;19971;-67
2022/10/07 04:35:35;;;;;;;;;;;9.80;99.90;;;;;;5062410;28;19963;-65
2022/10/07 04:38:06;;;;;;;;;;;9.90;99.90;;;;;;5062272;28;19972;-66
2022/10/07 04:40:38;;;;;;;;;;;9.90;99.90;;;;;;5062245;28;19970;-67
2022/10/07 04:43:22;;;;;;;;;;;9.90;99.90;;;;;;5062513;28;19964;-66
2022/10/07 04:45:52;;;;;;;;;;;9.80;99.90;;;;;;5060646;28;19975;-67
2022/10/07 04:48:20;;;;;;;;;;;9.70;99.90;;;;;;5061785;28;19974;-67
2022/10/07 04:50:50;;;;;;;;;;;9.50;99.90;;;;;;5061361;28;19976;-66
2022/10/07 04:53:18;;;;;;;;;;;9.50;99.90;;;;;;5063880;28;19972;-66
2022/10/07 04:55:47;;;;;;;;;;;9.40;99.90;;;;;;5062087;28;19975;-66
2022/10/07 04:58:16;;;;;;;;;;;9.50;99.90;;;;;;5061301;28;19982;-66
2022/10/07 05:00:45;;;;;;;;;;;9.40;99.90;;;;;;5061262;28;19982;-66
2022/10/07 05:03:14;;;;;;;;;;;9.40;99.90;;;;;;5063300;28;19979;-66
2022/10/07 05:05:42;;;;;;;;;;;9.50;99.90;;;;;;5061576;28;19972;-66
2022/10/07 05:08:10;;;;;;;;;;;9.40;99.90;;;;;;5060920;28;19976;-65
2022/10/07 05:10:40;;;;;;;;;;;9.40;99.90;;;;;;5061292;28;20210;-65
2022/10/07 05:13:08;;;;;;;;;;;9.40;99.90;;;;;;5061984;28;19986;-66
2022/10/07 05:15:37;;;;;;;;;;;9.40;99.90;;;;;;5062599;28;19968;-66
2022/10/07 05:18:06;;;;;;;;;;;9.40;99.90;;;;;;5060870;28;19975;-67
2022/10/07 05:20:34;;;;;;;;;;;9.40;99.90;;;;;;5062017;28;19968;-65
2022/10/07 05:23:02;;;;;;;;;;;9.50;99.90;;;;;;5063002;28;19968;-66
2022/10/07 05:25:29;;;;;;;;;;;9.50;99.90;;;;;;5062176;28;20459;-65
2022/10/07 05:27:57;;;;;;;;;;;9.40;99.90;;;;;;5060835;28;20002;-66
2022/10/07 05:30:25;;;;;;;;;;;9.40;99.90;;;;;;5060908;28;20214;-65
2022/10/07 05:32:54;;;;;;;;;;;9.50;99.90;;;;;;5062678;28;20022;-66
2022/10/07 05:35:22;;;;;;;;;;;9.30;99.90;;;;;;5061190;28;20405;-66
2022/10/07 05:37:52;;;;;;;;;;;9.20;99.90;;;;;;5060426;28;19972;-67
2022/10/07 05:40:20;;;;;;;;;;;9.20;99.90;;;;;;5062246;28;20014;-66
2022/10/07 05:42:48;;;;;;;;;;;9.20;99.90;;;;;;5061715;28;19983;-66
2022/10/07 05:45:16;;;;;;;;;;;9.10;99.90;;;;;;5061902;28;20512;-67
2022/10/07 05:47:44;;;;;;;;;;;9.20;99.90;;;;;;5059846;28;19971;-66
2022/10/07 05:50:14;;;;;;;;;;;9.30;99.90;;;;;;5060920;28;19972;-66
2022/10/07 05:52:44;;;;;;;;;;;9.30;99.90;;;;;;5062954;28;20066;-66
2022/10/07 05:55:11;;;;;;;;;;;9.30;99.90;;;;;;5064903;28;20099;-66
2022/10/07 05:57:40;;;;;;;;;;;9.30;99.90;;;;;;5062355;28;20479;-66
2022/10/07 06:00:08;;;;;;;;;;;9.40;99.90;;;;;;5064730;28;20367;-66
2022/10/07 06:02:37;;;;;;;;;;;9.30;99.90;;;;;;5071369;28;19964;-64
2022/10/07 06:05:06;;;;;;;;;;;9.10;99.90;;;;;;5074725;28;20072;-66
2022/10/07 06:07:35;;;;;;;;;;;9.10;99.90;;;;;;5075123;28;19964;-64
2022/10/07 06:15:33;;;;;;;;;;;9.00;99.90;;;;;;5075226;28;19971;-64
2022/10/07 06:18:03;;;;;;;;;;;8.90;99.90;;;;;;5075477;28;19980;-64
2022/10/07 06:20:30;;;;;;;;;;;8.90;99.90;;;;;;5074949;28;19964;-63
2022/10/07 06:22:59;;;;;;;;;;;8.90;99.90;;;;;;5075003;28;19968;-65
2022/10/07 06:25:27;;;;;;;;;;;9.90;99.90;;;;;;5075012;28;19971;-62
2022/10/07 06:27:55;;;;;;;;;;;11.90;99.90;;;;;;5061658;22;19975;-63
2022/10/07 06:30:24;;;;;;;;;;;13.10;99.90;;;;;;4991389;28;20522;-64
2022/10/07 06:32:52;;;;;;;;;;;13.30;99.90;;;;;;4991284;28;19976;-64
2022/10/07 06:35:20;;;;;;;;;;;13.00;99.90;;;;;;4991876;28;19969;-64
2022/10/07 06:37:48;;;;;;;;;;;12.50;99.90;;;;;;4992306;28;19976;-64
2022/10/07 06:40:17;;;;;;;;;;;11.90;99.90;;;;;;4992228;28;19969;-64
2022/10/07 06:42:45;;;;;;;;;;;11.40;99.90;;;;;;4992375;28;20326;-64
2022/10/07 06:45:13;;;;;;;;;;;10.80;99.90;;;;;;4991672;28;19999;-64
2022/10/07 06:47:40;;;;;;;;;;;10.30;99.90;;;;;;4992196;28;19977;-64
2022/10/07 06:50:08;;;;;;;;;;;10.10;99.90;;;;;;4992103;28;20068;-63
2022/10/07 06:52:36;;;;;;;;;;;9.90;99.90;;;;;;4992191;28;19974;-64
2022/10/07 06:55:10;;;;;;;;;;;9.70;99.90;;;;;;4992166;28;20513;-64
2022/10/07 06:57:40;;;;;;;;;;;9.60;99.90;;;;;;4992039;28;19968;-63
2022/10/07 07:00:22;;;;;;;;;;;9.40;99.90;;;;;;4992025;28;20422;-64
2022/10/07 07:02:50;;;;;;;;;;;9.30;99.90;;;;;;4992129;28;20442;-64
2022/10/07 07:05:18;;;;;;;;;;;9.30;99.90;;;;;;4990564;28;19969;-64
2022/10/07 07:07:46;;;;;;;;;;;9.30;99.90;;;;;;4991581;28;20335;-64
2022/10/07 07:10:14;;;;;;;;;;;9.40;99.90;;;;;;4991734;28;20059;-64
2022/10/07 07:12:44;;;;;;;;;;;9.40;99.90;;;;;;4991902;28;19969;-64
2022/10/07 07:15:12;;;;;;;;;;;9.40;99.90;;;;;;4991966;28;19974;-64
2022/10/07 07:17:40;;;;;;;;;;;9.50;99.90;;;;;;4991604;28;20063;-64
2022/10/07 07:20:08;;;;;;;;;;;9.50;99.90;;;;;;4991991;28;20413;-63
2022/10/07 07:22:36;;;;;;;;;;;9.50;99.90;;;;;;4991688;28;19970;-64
2022/10/07 07:25:04;;;;;;;;;;;9.50;99.90;;;;;;4991771;28;19973;-63
2022/10/07 07:27:32;;;;;;;;;;;9.50;99.90;;;;;;4991083;28;19970;-64
2022/10/07 07:30:01;;;;;;;;;;;9.50;99.90;;;;;;4991873;28;19973;-64
2022/10/07 07:32:29;;;;;;;;;;;9.40;99.90;;;;;;4991793;28;20060;-63
2022/10/07 07:34:59;;;;;;;;;;;9.50;99.90;;;;;;4991515;28;20346;-64
2022/10/07 07:37:28;;;;;;;;;;;9.70;99.90;;;;;;4991403;28;20072;-64
2022/10/07 07:39:56;;;;;;;;;;;10.00;99.90;;;;;;4991263;28;20150;-63
2022/10/07 07:42:24;;;;;;;;;;;10.20;99.90;;;;;;4991491;28;20377;-64
2022/10/07 07:44:52;;;;;;;;;;;10.50;99.90;;;;;;4990863;28;19973;-64
2022/10/07 07:47:21;;;;;;;;;;;10.70;99.90;;;;;;4990918;28;19977;-64
2022/10/07 07:49:49;;;;;;;;;;;10.90;99.90;;;;;;4991305;28;19973;-63
2022/10/07 07:52:16;;;;;;;;;;;11.00;99.90;;;;;;4991314;28;19983;-64
2022/10/07 07:54:44;;;;;;;;;;;11.20;99.90;;;;;;4991243;28;19973;-64
2022/10/07 07:57:12;;;;;;;;;;;11.40;99.90;;;;;;4990883;28;19969;-63
2022/10/07 07:59:40;;;;;;;;;;;11.60;99.90;;;;;;4990905;28;19973;-63
2022/10/07 08:02:07;;;;;;;;;;;11.90;99.90;;;;;;4991135;28;20071;-63
2022/10/07 08:04:37;;;;;;;;;;;12.00;99.90;;;;;;4991199;28;20026;-63
2022/10/07 08:07:04;;;;;;;;;;;12.20;99.90;;;;;;4990782;28;19980;-64
2022/10/07 08:09:32;;;;;;;;;;;12.30;99.90;;;;;;4990927;28;19979;-64
2022/10/07 08:12:01;;;;;;;;;;;12.40;99.90;;;;;;4990929;28;19999;-63
2022/10/07 08:14:29;;;;;;;;;;;12.50;99.90;;;;;;4990897;28;19992;-64
2022/10/07 08:16:58;;;;;;;;;;;12.80;99.90;;;;;;4990242;28;19969;-64
2022/10/07 08:19:26;;;;;;;;;;;13.10;99.90;;;;;;4990979;28;19977;-64
2022/10/07 08:21:55;;;;;;;;;;;13.30;99.90;;;;;;4990794;28;20071;-64
2022/10/07 08:24:24;;;;;;;;;;;13.50;99.90;;;;;;4990462;28;20438;-63
2022/10/07 08:26:53;;;;;;;;;;;13.80;99.90;;;;;;4990365;28;19968;-64
2022/10/07 08:29:20;;;;;;;;;;;13.90;99.90;;;;;;4990804;28;20490;-64
2022/10/07 08:31:48;;;;;;;;;;;14.00;99.90;;;;;;4990548;28;19973;-63
2022/10/07 08:34:16;;;;;;;;;;;14.50;99.90;;;;;;4990703;28;20440;-64
2022/10/07 08:36:46;;;;;;;;;;;14.70;99.90;;;;;;4990407;28;19991;-64
2022/10/07 08:39:15;;;;;;;;;;;14.90;99.90;;;;;;4990521;28;19976;-64
2022/10/07 08:41:50;;;;;;;;;;;15.40;99.90;;;;;;4990462;28;20440;-64
2022/10/07 08:44:19;;;;;;;;;;;15.70;99.90;;;;;;4990653;28;19974;-64
2022/10/07 08:46:54;;;;;;;;;;;15.90;99.90;;;;;;4989961;28;19976;-64
2022/10/07 08:49:24;;;;;;;;;;;16.10;99.90;;;;;;4990530;28;19969;-64
2022/10/07 08:51:54;;;;;;;;;;;16.30;99.90;;;;;;4990422;28;20426;-64
2022/10/07 08:54:26;;;;;;;;;;;16.30;99.90;;;;;;4990887;28;19968;-64
2022/10/07 08:56:54;;;;;;;;;;;16.40;99.90;;;;;;4989968;28;19983;-65
2022/10/07 08:59:25;;;;;;;;;;;16.50;99.90;;;;;;4989959;28;20528;-64
2022/10/07 09:01:59;;;;;;;;;;;16.40;99.90;;;;;;4990195;28;20066;-65
2022/10/07 09:04:33;;;;;;;;;;;16.20;99.90;;;;;;4990324;28;20072;-64
2022/10/07 09:07:02;;;;;;;;;;;16.50;99.90;;;;;;4989702;28;20487;-64
2022/10/07 09:09:33;;;;;;;;;;;16.70;99.90;;;;;;4990034;28;19972;-65
2022/10/07 09:12:02;;;;;;;;;;;16.80;99.90;;;;;;4990279;28;19976;-64
2022/10/07 09:14:32;;;;;;;;;;;16.90;99.90;;;;;;4990088;28;20345;-64
2022/10/07 09:17:01;;;;;;;;;;;16.90;99.90;;;;;;4989740;28;19970;-64
2022/10/07 09:19:31;;;;;;;;;;;17.00;99.90;;;;;;4989998;28;20365;-64
2022/10/07 09:22:04;;;;;;;;;;;17.20;99.90;;;;;;4989941;28;19972;-64
2022/10/07 09:24:34;;;;;;;;;;;17.30;99.90;;;;;;4989738;28;20425;-64
2022/10/07 09:27:05;;;;;;;;;;;17.40;99.90;;;;;;4989261;28;19968;-64
2022/10/07 09:29:32;;;;;;;;;;;17.80;99.90;;;;;;4951146;28;20012;-64
2022/10/07 09:32:00;;;;;;;;;;;18.30;99.90;;;;;;4951315;28;19973;-65
2022/10/07 09:34:29;;;;;;;;;;;18.60;99.90;;;;;;4951004;28;20349;-65
2022/10/07 09:37:15;;;;;;;;;;;18.80;99.90;;;;;;4950931;28;19979;-65
2022/10/07 09:39:44;;;;;;;;;;;18.60;99.90;;;;;;4950824;29;19972;-65
2022/10/07 09:42:17;;;;;;;;;;;19.00;99.90;;;;;;4950988;28;20063;-64
2022/10/07 09:44:50;;;;;;;;;;;19.40;99.90;;;;;;4950350;29;19979;-64
2022/10/07 09:47:20;;;;;;;;;;;19.50;99.90;;;;;;4951015;28;19977;-64
2022/10/07 09:49:50;;;;;;;;;;;19.60;99.90;;;;;;4951351;28;20306;-65
2022/10/07 09:52:21;;;;;;;;;;;19.60;99.90;;;;;;4950772;28;19984;-64
2022/10/07 09:54:51;;;;;;;;;;;20.00;99.90;;;;;;4951035;28;20364;-65
2022/10/07 09:57:24;;;;;;;;;;;20.30;99.90;;;;;;4950781;28;20076;-64
2022/10/07 09:59:53;;;;;;;;;;;20.50;99.90;;;;;;4950749;28;19990;-65
2022/10/07 10:02:22;;;;;;;;;;;20.80;99.90;;;;;;4950553;28;19975;-65
2022/10/07 10:04:51;;;;;;;;;;;20.80;99.90;;;;;;4950723;28;19980;-64
2022/10/07 10:07:20;;;;;;;;;;;21.00;99.90;;;;;;4950660;28;19975;-65
2022/10/07 10:09:50;;;;;;;;;;;21.10;99.90;;;;;;4950574;28;19969;-65
2022/10/07 10:12:19;;;;;;;;;;;21.00;99.90;;;;;;4950412;28;20427;-65
2022/10/07 10:14:48;;;;;;;;;;;20.90;99.90;;;;;;4950801;28;19976;-65
2022/10/07 10:17:23;;;;;;;;;;;21.20;99.90;;;;;;4950523;28;19979;-64
2022/10/07 10:19:50;;;;;;;;;;;21.30;99.90;;;;;;4950426;28;19970;-65
2022/10/07 10:22:25;;;;;;;;;;;21.30;99.90;;;;;;4950886;28;19970;-65
2022/10/07 10:27:45;;;;;;;;;;;21.40;99.90;;;;;;4959545;28;20351;-65
2022/10/07 10:30:16;;;;;;;;;;;21.40;99.90;;;;;;4989102;28;19972;-65
2022/10/07 10:32:56;;;;;;;;;;;21.60;99.90;;;;;;4988891;28;20298;-65
2022/10/07 10:35:25;;;;;;;;;;;21.40;99.90;;;;;;4989113;28;19968;-64
2022/10/07 10:38:04;;;;;;;;;;;21.30;99.90;;;;;;4989000;28;20366;-64
2022/10/07 10:40:37;;;;;;;;;;;21.50;99.90;;;;;;4991963;28;19968;-65
2022/10/07 10:43:16;;;;;;;;;;;21.70;99.90;;;;;;4992045;28;20448;-65
2022/10/07 10:45:50;;;;;;;;;;;22.00;99.90;;;;;;4992131;28;19995;-65
2022/10/07 10:48:27;;;;;;;;;;;22.20;99.80;;;;;;4992190;28;20067;-65
2022/10/07 10:50:58;;;;;;;;;;;22.10;99.90;;;;;;4991992;28;20017;-65
2022/10/07 10:53:33;;;;;;;;;;;22.20;99.90;;;;;;4991925;28;19973;-65
2022/10/07 10:56:07;;;;;;;;;;;22.20;99.80;;;;;;4992351;28;20005;-64
2022/10/07 10:58:41;;;;;;;;;;;22.20;99.60;;;;;;4992238;28;19968;-64
2022/10/07 11:01:12;;;;;;;;;;;22.20;99.90;;;;;;4991796;28;19972;-65
2022/10/07 11:04:00;;;;;;;;;;;22.20;99.70;;;;;;4991949;28;19976;-65
2022/10/07 11:06:29;;;;;;;;;;;22.60;99.90;;;;;;4993350;28;19976;-65
2022/10/07 11:08:58;;;;;;;;;;;23.00;99.60;;;;;;4992238;28;19969;-64
2022/10/07 11:11:27;;;;;;;;;;;23.10;98.80;;;;;;4991728;28;19969;-64
2022/10/07 11:13:57;;;;;;;;;;;23.10;98.90;;;;;;4991929;28;20428;-65
2022/10/07 11:16:28;;;;;;;;;;;23.30;98.40;;;;;;4991860;28;19969;-64
2022/10/07 11:18:59;;;;;;;;;;;23.70;98.10;;;;;;4991902;28;20353;-65
2022/10/07 11:21:32;;;;;;;;;;;23.80;97.90;;;;;;4991577;28;19969;-65
2022/10/07 11:24:01;;;;;;;;;;;24.30;96.90;;;;;;4991636;28;19976;-65
2022/10/07 11:26:33;;;;;;;;;;;24.70;96.60;;;;;;4991808;28;20016;-65
2022/10/07 11:29:04;;;;;;;;;;;24.90;96.10;;;;;;4991447;28;20015;-65
2022/10/07 11:31:34;;;;;;;;;;;24.70;95.90;;;;;;4991433;28;19973;-65
2022/10/07 11:34:11;;;;;;;;;;;24.40;95.50;;;;;;4991560;28;19984;-64
2022/10/07 11:36:43;;;;;;;;;;;23.90;96.00;;;;;;4991350;28;19968;-65
2022/10/07 11:39:11;;;;;;;;;;;23.60;96.20;;;;;;4991482;28;19973;-65
2022/10/07 11:41:45;;;;;;;;;;;23.40;96.70;;;;;;4991328;28;19973;-65
2022/10/07 11:44:16;;;;;;;;;;;23.20;96.80;;;;;;4991536;28;19981;-64
2022/10/07 11:46:46;;;;;;;;;;;23.20;97.60;;;;;;4990866;28;19973;-65
2022/10/07 11:49:16;;;;;;;;;;;23.40;97.60;;;;;;4991218;28;20347;-65
2022/10/07 11:51:50;;;;;;;;;;;23.40;96.70;;;;;;4990560;28;19976;-65
2022/10/07 11:54:20;;;;;;;;;;;23.10;96.30;;;;;;4991267;28;19976;-65
2022/10/07 11:56:50;;;;;;;;;;;22.80;96.70;;;;;;4991031;28;19969;-64
2022/10/07 11:59:28;;;;;;;;;;;22.60;97.20;;;;;;4990846;28;20436;-65
2022/10/07 12:01:56;;;;;;;;;;;22.20;97.80;;;;;;4991442;28;20083;-64
2022/10/07 12:04:44;;;;;;;;;;;22.10;97.90;;;;;;4990716;28;19968;-65
2022/10/07 12:07:31;;;;;;;;;;;22.20;97.70;;;;;;4990836;28;19980;-65
2022/10/07 12:10:20;;;;;;;;;;;22.20;97.50;;;;;;4990856;28;20438;-65
2022/10/07 12:12:51;;;;;;;;;;;22.20;97.60;;;;;;4990946;28;19976;-65
2022/10/07 12:15:24;;;;;;;;;;;22.40;97.40;;;;;;4990674;28;19980;-64
2022/10/07 12:17:55;;;;;;;;;;;22.70;96.70;;;;;;4990399;28;19970;-64
2022/10/07 12:20:44;;;;;;;;;;;22.80;97.40;;;;;;4990898;28;20386;-65
2022/10/07 12:23:31;;;;;;;;;;;22.70;96.80;;;;;;4990771;28;19973;-65
2022/10/07 12:25:59;;;;;;;;;;;22.90;97.10;;;;;;4990724;28;19973;-65
2022/10/07 12:28:30;;;;;;;;;;;23.10;97.10;;;;;;5051860;23;19968;-65
2022/10/07 12:30:59;;;;;;;;;;;23.40;96.70;;;;;;5071788;28;19975;-65
2022/10/07 12:33:30;;;;;;;;;;;23.60;97.10;;;;;;5072593;28;19977;-65
2022/10/07 12:35:58;;;;;;;;;;;24.20;96.00;;;;;;5072878;28;20301;-65
2022/10/07 12:38:27;;;;;;;;;;;24.40;95.70;;;;;;5072171;28;20014;-64
2022/10/07 12:41:14;;;;;;;;;;;24.50;96.00;;;;;;5072434;28;20060;-64
2022/10/07 12:43:48;;;;;;;;;;;24.90;95.70;;;;;;5072311;28;19974;-65
2022/10/07 12:46:18;;;;;;;;;;;25.40;95.20;;;;;;5072277;28;20423;-66
2022/10/07 12:48:47;;;;;;;;;;;26.00;94.50;;;;;;5071847;28;20349;-65
2022/10/07 12:51:18;;;;;;;;;;;26.30;94.10;;;;;;5072329;28;19974;-64
2022/10/07 12:53:46;;;;;;;;;;;26.70;93.50;;;;;;5072323;28;19972;-65
2022/10/07 12:56:19;;;;;;;;;;;26.60;93.10;;;;;;5072418;28;19968;-65
2022/10/07 13:02:16;;;;;;;;;;;26.90;93.30;;;;;;5072031;28;20069;-65
2022/10/07 13:04:59;;;;;;;;;;;26.00;92.80;;;;;;5072451;28;20010;-64
2022/10/07 13:07:42;;;;;;;;;;;25.20;93.50;;;;;;5072213;28;20109;-66
2022/10/07 13:10:27;;;;;;;;;;;25.30;94.20;;;;;;5072031;28;20351;-65
2022/10/07 13:12:56;;;;;;;;;;;25.70;93.60;;;;;;5071751;28;19978;-65
2022/10/07 13:15:32;;;;;;;;;;;25.30;93.10;;;;;;5072106;28;19968;-65
2022/10/07 13:18:05;;;;;;;;;;;25.50;93.60;;;;;;5071995;28;19967;-65
2022/10/07 13:20:41;;;;;;;;;;;26.10;93.60;;;;;;5071926;28;20359;-65
2022/10/07 13:23:14;;;;;;;;;;;26.40;93.10;;;;;;5071774;28;20501;-66
2022/10/07 13:25:43;;;;;;;;;;;26.80;92.60;;;;;;5072061;28;19993;-65
2022/10/07 13:28:13;;;;;;;;;;;26.50;92.10;;;;;;5071621;28;19967;-64
2022/10/07 13:30:44;;;;;;;;;;;26.10;92.20;;;;;;5071603;28;19968;-65
2022/10/07 13:33:19;;;;;;;;;;;25.60;92.80;;;;;;5071978;28;19967;-65
2022/10/07 13:35:47;;;;;;;;;;;25.10;93.30;;;;;;5071979;28;19978;-65
2022/10/07 13:38:21;;;;;;;;;;;25.00;93.80;;;;;;5071767;28;20406;-65
2022/10/07 13:40:53;;;;;;;;;;;24.70;94.10;;;;;;5071653;28;19967;-64
2022/10/07 13:43:22;;;;;;;;;;;24.70;93.30;;;;;;5071611;28;20066;-66
2022/10/07 13:45:51;;;;;;;;;;;24.70;93.60;;;;;;5071491;28;19972;-65
2022/10/07 13:48:21;;;;;;;;;;;24.80;93.60;;;;;;5071748;28;20021;-65
2022/10/07 13:50:49;;;;;;;;;;;24.70;93.60;;;;;;5071592;28;19977;-64
2022/10/07 13:53:19;;;;;;;;;;;24.50;93.80;;;;;;5071752;28;19972;-65
2022/10/07 13:55:47;;;;;;;;;;;24.60;93.30;;;;;;5071949;28;19968;-65
2022/10/07 13:58:15;;;;;;;;;;;24.30;94.10;;;;;;5072065;28;20351;-65
2022/10/07 14:00:44;;;;;;;;;;;24.20;94.10;;;;;;5071572;28;19968;-64
2022/10/07 14:03:14;;;;;;;;;;;24.30;94.00;;;;;;5071501;28;19970;-65
2022/10/07 14:05:47;;;;;;;;;;;24.10;94.10;;;;;;5071147;28;19974;-65
2022/10/07 14:08:20;;;;;;;;;;;24.00;94.80;;;;;;5071682;28;19974;-65
2022/10/07 14:10:49;;;;;;;;;;;24.00;94.60;;;;;;5071243;28;20334;-65
2022/10/07 14:13:17;;;;;;;;;;;24.10;94.90;;;;;;5071322;28;20471;-64
2022/10/07 14:15:47;;;;;;;;;;;24.10;94.80;;;;;;5075351;28;19968;-63
2022/10/07 14:18:17;;;;;;;;;;;23.40;95.50;;;;;;5075086;28;20478;-64
2022/10/07 14:20:49;;;;;;;;;;;23.00;96.20;;;;;;5075085;28;19974;-65
2022/10/07 14:23:20;;;;;;;;;;;22.80;96.90;;;;;;5075271;28;19997;-63
2022/10/07 14:25:52;;;;;;;;;;;22.30;97.10;;;;;;5075334;28;19972;-65
2022/10/07 14:28:26;;;;;;;;;;;21.70;98.20;;;;;;5074821;28;19968;-64
2022/10/07 14:37:01;;;;;;;;;;;20.80;99.90;;;;;;5074842;28;20083;-65
2022/10/07 14:39:31;;;;;;;;;;;20.70;99.90;;;;;;5074704;28;19971;-64
2022/10/07 14:41:59;;;;;;;;;;;20.70;99.90;;;;;;5074695;28;19992;-64
2022/10/07 14:44:27;;;;;;;;;;;20.80;99.90;;;;;;5075077;28;19970;-65
2022/10/07 14:47:11;;;;;;;;;;;20.70;99.90;;;;;;5074628;28;19971;-65
2022/10/07 14:49:41;;;;;;;;;;;20.80;99.90;;;;;;5074279;28;20442;-64
2022/10/07 14:52:10;;;;;;;;;;;20.80;99.90;;;;;;5074759;28;20455;-64
2022/10/07 14:54:38;;;;;;;;;;;20.50;99.90;;;;;;5074683;28;19976;-64
2022/10/07 14:57:06;;;;;;;;;;;20.50;99.90;;;;;;5074607;28;19967;-65
2022/10/07 14:59:34;;;;;;;;;;;20.40;99.90;;;;;;5074080;28;19966;-64
2022/10/07 15:02:01;;;;;;;;;;;20.10;99.90;;;;;;5074698;28;19972;-64